sensor_id;sensor_type;location;lat;lon;timestamp;temperature;humidity
66506;HTU21D;53332;51.082;5.832;2023-06-14T00:00:17;21.03;49.07
66506;HTU21D;53332;51.082;5.832;2023-06-14T00:02:43;20.99;49.51
66506;HTU21D;53332;51.082;5.832;2023-06-14T00:05:08;20.94;50.09
66506;HTU21D;53332;51.082;5.832;2023-06-14T00:07:36;20.90;50.40
66506;HTU21D;53332;51.082;5.832;2023-06-14T00:10:04;20.83;50.72
66506;HTU21D;53332;51.082;5.832;2023-06-14T00:12:30;20.78;50.65
66506;HTU21D;53332;51.082;5.832;2023-06-14T00:14:56;20.74;50.31
66506;HTU21D;53332;51.082;5.832;2023-06-14T00:17:22;20.70;50.31
66506;HTU21D;53332;51.082;5.832;2023-06-14T00:19:48;20.66;50.97
66506;HTU21D;53332;51.082;5.832;2023-06-14T00:22:14;20.72;51.53
66506;HTU21D;53332;51.082;5.832;2023-06-14T00:24:39;20.63;51.70
66506;HTU21D;53332;51.082;5.832;2023-06-14T00:27:05;20.58;51.24
66506;HTU21D;53332;51.082;5.832;2023-06-14T00:29:31;20.56;51.43
66506;HTU21D;53332;51.082;5.832;2023-06-14T00:31:56;20.53;51.46
66506;HTU21D;53332;51.082;5.832;2023-06-14T00:34:22;20.46;51.45
66506;HTU21D;53332;51.082;5.832;2023-06-14T00:36:47;20.37;51.25
66506;HTU21D;53332;51.082;5.832;2023-06-14T00:39:13;20.34;50.76
66506;HTU21D;53332;51.082;5.832;2023-06-14T00:41:39;20.32;50.95
66506;HTU21D;53332;51.082;5.832;2023-06-14T00:44:08;20.31;51.25
66506;HTU21D;53332;51.082;5.832;2023-06-14T00:46:33;20.31;51.55
66506;HTU21D;53332;51.082;5.832;2023-06-14T00:49:01;20.30;51.48
66506;HTU21D;53332;51.082;5.832;2023-06-14T00:51:27;20.29;51.82
66506;HTU21D;53332;51.082;5.832;2023-06-14T00:53:53;20.22;51.50
66506;HTU21D;53332;51.082;5.832;2023-06-14T00:56:18;20.15;51.01
66506;HTU21D;53332;51.082;5.832;2023-06-14T00:58:46;20.16;50.82
66506;HTU21D;53332;51.082;5.832;2023-06-14T01:01:11;20.18;50.98
66506;HTU21D;53332;51.082;5.832;2023-06-14T01:03:37;20.15;50.49
66506;HTU21D;53332;51.082;5.832;2023-06-14T01:06:17;20.12;50.69
66506;HTU21D;53332;51.082;5.832;2023-06-14T01:09:03;20.16;50.85
66506;HTU21D;53332;51.082;5.832;2023-06-14T01:11:41;20.16;50.98
66506;HTU21D;53332;51.082;5.832;2023-06-14T01:14:13;20.10;51.16
66506;HTU21D;53332;51.082;5.832;2023-06-14T01:16:39;20.02;51.44
66506;HTU21D;53332;51.082;5.832;2023-06-14T01:19:08;19.98;51.81
66506;HTU21D;53332;51.082;5.832;2023-06-14T01:21:39;19.98;52.12
66506;HTU21D;53332;51.082;5.832;2023-06-14T01:24:10;19.91;53.24
66506;HTU21D;53332;51.082;5.832;2023-06-14T01:26:38;19.86;53.65
66506;HTU21D;53332;51.082;5.832;2023-06-14T01:29:06;19.84;53.52
66506;HTU21D;53332;51.082;5.832;2023-06-14T01:31:34;19.80;53.35
66506;HTU21D;53332;51.082;5.832;2023-06-14T01:34:07;19.77;53.41
66506;HTU21D;53332;51.082;5.832;2023-06-14T01:36:36;19.74;53.25
66506;HTU21D;53332;51.082;5.832;2023-06-14T01:39:06;19.70;53.61
66506;HTU21D;53332;51.082;5.832;2023-06-14T01:41:35;19.69;54.24
66506;HTU21D;53332;51.082;5.832;2023-06-14T01:44:02;19.67;54.38
66506;HTU21D;53332;51.082;5.832;2023-06-14T01:46:28;19.67;54.21
66506;HTU21D;53332;51.082;5.832;2023-06-14T01:48:54;19.63;54.20
66506;HTU21D;53332;51.082;5.832;2023-06-14T01:51:20;19.62;54.10
66506;HTU21D;53332;51.082;5.832;2023-06-14T01:53:46;19.62;54.27
66506;HTU21D;53332;51.082;5.832;2023-06-14T01:56:12;19.59;54.33
66506;HTU21D;53332;51.082;5.832;2023-06-14T01:58:38;19.57;54.57
66506;HTU21D;53332;51.082;5.832;2023-06-14T02:01:04;19.55;54.10
66506;HTU21D;53332;51.082;5.832;2023-06-14T02:03:30;19.56;53.91
66506;HTU21D;53332;51.082;5.832;2023-06-14T02:06:17;19.53;53.89
66506;HTU21D;53332;51.082;5.832;2023-06-14T02:08:43;19.50;53.39
66506;HTU21D;53332;51.082;5.832;2023-06-14T02:11:18;19.47;53.55
66506;HTU21D;53332;51.082;5.832;2023-06-14T02:13:44;19.43;53.14
66506;HTU21D;53332;51.082;5.832;2023-06-14T02:16:10;19.39;53.20
66506;HTU21D;53332;51.082;5.832;2023-06-14T02:18:36;19.40;53.21
66506;HTU21D;53332;51.082;5.832;2023-06-14T02:21:01;19.37;53.25
66506;HTU21D;53332;51.082;5.832;2023-06-14T02:23:27;19.37;53.22
66506;HTU21D;53332;51.082;5.832;2023-06-14T02:25:53;19.36;53.46
66506;HTU21D;53332;51.082;5.832;2023-06-14T02:28:18;19.31;53.72
66506;HTU21D;53332;51.082;5.832;2023-06-14T02:30:47;19.29;54.01
66506;HTU21D;53332;51.082;5.832;2023-06-14T02:33:20;19.25;54.12
66506;HTU21D;53332;51.082;5.832;2023-06-14T02:35:47;19.18;54.62
66506;HTU21D;53332;51.082;5.832;2023-06-14T02:38:13;19.11;55.01
66506;HTU21D;53332;51.082;5.832;2023-06-14T02:40:38;19.06;55.50
66506;HTU21D;53332;51.082;5.832;2023-06-14T02:43:06;19.01;55.85
66506;HTU21D;53332;51.082;5.832;2023-06-14T02:45:31;19.02;55.69
66506;HTU21D;53332;51.082;5.832;2023-06-14T02:47:57;19.01;56.10
66506;HTU21D;53332;51.082;5.832;2023-06-14T02:50:22;19.01;57.22
66506;HTU21D;53332;51.082;5.832;2023-06-14T02:52:49;18.96;57.48
66506;HTU21D;53332;51.082;5.832;2023-06-14T02:55:15;18.92;56.76
66506;HTU21D;53332;51.082;5.832;2023-06-14T02:57:40;18.88;56.22
66506;HTU21D;53332;51.082;5.832;2023-06-14T03:00:06;18.85;55.84
66506;HTU21D;53332;51.082;5.832;2023-06-14T03:02:35;18.87;55.79
66506;HTU21D;53332;51.082;5.832;2023-06-14T03:05:00;18.87;56.01
66506;HTU21D;53332;51.082;5.832;2023-06-14T03:07:28;18.89;56.25
66506;HTU21D;53332;51.082;5.832;2023-06-14T03:09:55;18.89;55.96
66506;HTU21D;53332;51.082;5.832;2023-06-14T03:12:20;18.88;55.65
66506;HTU21D;53332;51.082;5.832;2023-06-14T03:14:46;18.84;55.42
66506;HTU21D;53332;51.082;5.832;2023-06-14T03:17:12;18.80;55.55
66506;HTU21D;53332;51.082;5.832;2023-06-14T03:19:38;18.76;55.97
66506;HTU21D;53332;51.082;5.832;2023-06-14T03:22:03;18.71;56.23
66506;HTU21D;53332;51.082;5.832;2023-06-14T03:24:29;18.69;56.33
66506;HTU21D;53332;51.082;5.832;2023-06-14T03:26:54;18.68;56.19
66506;HTU21D;53332;51.082;5.832;2023-06-14T03:29:20;18.69;56.45
66506;HTU21D;53332;51.082;5.832;2023-06-14T03:32:00;18.66;57.00
66506;HTU21D;53332;51.082;5.832;2023-06-14T03:34:26;18.64;57.36
66506;HTU21D;53332;51.082;5.832;2023-06-14T03:36:52;18.58;58.09
66506;HTU21D;53332;51.082;5.832;2023-06-14T03:39:18;18.54;58.64
66506;HTU21D;53332;51.082;5.832;2023-06-14T03:41:45;18.50;59.25
66506;HTU21D;53332;51.082;5.832;2023-06-14T03:44:10;18.50;58.90
66506;HTU21D;53332;51.082;5.832;2023-06-14T03:46:36;18.53;58.74
66506;HTU21D;53332;51.082;5.832;2023-06-14T03:49:01;18.51;58.43
66506;HTU21D;53332;51.082;5.832;2023-06-14T03:51:28;18.47;58.69
66506;HTU21D;53332;51.082;5.832;2023-06-14T03:53:54;18.48;58.72
66506;HTU21D;53332;51.082;5.832;2023-06-14T03:56:21;18.50;58.78
66506;HTU21D;53332;51.082;5.832;2023-06-14T03:58:46;18.48;58.73
66506;HTU21D;53332;51.082;5.832;2023-06-14T04:01:12;18.48;58.56
66506;HTU21D;53332;51.082;5.832;2023-06-14T04:03:38;18.48;59.07
66506;HTU21D;53332;51.082;5.832;2023-06-14T04:06:04;18.48;59.36
66506;HTU21D;53332;51.082;5.832;2023-06-14T04:08:31;18.44;59.93
66506;HTU21D;53332;51.082;5.832;2023-06-14T04:10:56;18.42;59.70
66506;HTU21D;53332;51.082;5.832;2023-06-14T04:13:22;18.48;59.65
66506;HTU21D;53332;51.082;5.832;2023-06-14T04:15:47;18.52;59.57
66506;HTU21D;53332;51.082;5.832;2023-06-14T04:18:13;18.53;59.65
66506;HTU21D;53332;51.082;5.832;2023-06-14T04:20:39;18.57;59.76
66506;HTU21D;53332;51.082;5.832;2023-06-14T04:23:16;18.64;59.64
66506;HTU21D;53332;51.082;5.832;2023-06-14T04:25:46;18.63;60.09
66506;HTU21D;53332;51.082;5.832;2023-06-14T04:28:13;18.65;60.36
66506;HTU21D;53332;51.082;5.832;2023-06-14T04:30:41;18.66;60.63
66506;HTU21D;53332;51.082;5.832;2023-06-14T04:33:07;18.68;60.91
66506;HTU21D;53332;51.082;5.832;2023-06-14T04:35:33;18.69;61.12
66506;HTU21D;53332;51.082;5.832;2023-06-14T04:38:01;18.72;60.83
66506;HTU21D;53332;51.082;5.832;2023-06-14T04:40:32;18.73;60.32
66506;HTU21D;53332;51.082;5.832;2023-06-14T04:42:59;18.74;60.12
66506;HTU21D;53332;51.082;5.832;2023-06-14T04:45:24;18.76;60.37
66506;HTU21D;53332;51.082;5.832;2023-06-14T04:47:59;18.73;61.10
66506;HTU21D;53332;51.082;5.832;2023-06-14T04:50:25;18.72;61.29
66506;HTU21D;53332;51.082;5.832;2023-06-14T04:52:50;18.74;61.60
66506;HTU21D;53332;51.082;5.832;2023-06-14T04:55:17;18.77;61.97
66506;HTU21D;53332;51.082;5.832;2023-06-14T04:57:44;18.80;62.28
66506;HTU21D;53332;51.082;5.832;2023-06-14T05:00:10;18.83;62.36
66506;HTU21D;53332;51.082;5.832;2023-06-14T05:02:37;18.85;62.22
66506;HTU21D;53332;51.082;5.832;2023-06-14T05:05:05;18.83;61.88
66506;HTU21D;53332;51.082;5.832;2023-06-14T05:07:32;18.84;61.99
66506;HTU21D;53332;51.082;5.832;2023-06-14T05:09:59;18.83;62.25
66506;HTU21D;53332;51.082;5.832;2023-06-14T05:12:25;18.80;62.27
66506;HTU21D;53332;51.082;5.832;2023-06-14T05:14:50;18.79;62.14
66506;HTU21D;53332;51.082;5.832;2023-06-14T05:17:16;18.82;62.51
66506;HTU21D;53332;51.082;5.832;2023-06-14T05:19:44;18.86;62.66
66506;HTU21D;53332;51.082;5.832;2023-06-14T05:22:10;18.96;63.08
66506;HTU21D;53332;51.082;5.832;2023-06-14T05:24:36;19.05;63.02
66506;HTU21D;53332;51.082;5.832;2023-06-14T05:27:01;19.13;63.16
66506;HTU21D;53332;51.082;5.832;2023-06-14T05:29:27;19.18;62.96
66506;HTU21D;53332;51.082;5.832;2023-06-14T05:31:52;19.26;62.97
66506;HTU21D;53332;51.082;5.832;2023-06-14T05:34:18;19.37;63.57
66506;HTU21D;53332;51.082;5.832;2023-06-14T05:36:43;19.38;63.11
66506;HTU21D;53332;51.082;5.832;2023-06-14T05:39:09;19.44;62.98
66506;HTU21D;53332;51.082;5.832;2023-06-14T05:41:35;19.52;63.31
66506;HTU21D;53332;51.082;5.832;2023-06-14T05:44:01;19.57;61.77
66506;HTU21D;53332;51.082;5.832;2023-06-14T05:46:26;19.67;62.23
66506;HTU21D;53332;51.082;5.832;2023-06-14T05:48:53;19.76;62.05
66506;HTU21D;53332;51.082;5.832;2023-06-14T05:51:19;19.79;61.44
66506;HTU21D;53332;51.082;5.832;2023-06-14T05:53:45;19.80;60.90
66506;HTU21D;53332;51.082;5.832;2023-06-14T05:56:12;19.82;61.13
66506;HTU21D;53332;51.082;5.832;2023-06-14T05:58:38;19.90;61.64
66506;HTU21D;53332;51.082;5.832;2023-06-14T06:01:03;20.01;61.11
66506;HTU21D;53332;51.082;5.832;2023-06-14T06:03:29;20.10;59.95
66506;HTU21D;53332;51.082;5.832;2023-06-14T06:05:55;20.18;60.16
66506;HTU21D;53332;51.082;5.832;2023-06-14T06:08:20;20.29;60.41
66506;HTU21D;53332;51.082;5.832;2023-06-14T06:10:46;20.41;59.51
66506;HTU21D;53332;51.082;5.832;2023-06-14T06:13:12;20.51;58.83
66506;HTU21D;53332;51.082;5.832;2023-06-14T06:15:37;20.63;58.01
66506;HTU21D;53332;51.082;5.832;2023-06-14T06:18:03;20.72;56.45
66506;HTU21D;53332;51.082;5.832;2023-06-14T06:20:29;20.81;56.09
66506;HTU21D;53332;51.082;5.832;2023-06-14T06:22:59;20.99;55.28
66506;HTU21D;53332;51.082;5.832;2023-06-14T06:25:26;21.09;55.53
66506;HTU21D;53332;51.082;5.832;2023-06-14T06:27:53;21.18;54.93
66506;HTU21D;53332;51.082;5.832;2023-06-14T06:30:19;21.29;54.46
66506;HTU21D;53332;51.082;5.832;2023-06-14T06:32:45;21.42;54.13
66506;HTU21D;53332;51.082;5.832;2023-06-14T06:35:11;21.57;53.97
66506;HTU21D;53332;51.082;5.832;2023-06-14T06:37:38;21.74;53.62
66506;HTU21D;53332;51.082;5.832;2023-06-14T06:40:04;21.93;53.22
66506;HTU21D;53332;51.082;5.832;2023-06-14T06:42:31;22.16;52.76
66506;HTU21D;53332;51.082;5.832;2023-06-14T06:44:57;22.39;51.21
66506;HTU21D;53332;51.082;5.832;2023-06-14T06:47:23;22.61;50.05
66506;HTU21D;53332;51.082;5.832;2023-06-14T06:49:48;22.86;49.69
66506;HTU21D;53332;51.082;5.832;2023-06-14T06:52:14;23.08;48.02
66506;HTU21D;53332;51.082;5.832;2023-06-14T06:54:39;23.26;46.98
66506;HTU21D;53332;51.082;5.832;2023-06-14T06:57:05;23.43;46.20
66506;HTU21D;53332;51.082;5.832;2023-06-14T06:59:31;23.69;45.82
66506;HTU21D;53332;51.082;5.832;2023-06-14T07:01:57;24.00;45.09
66506;HTU21D;53332;51.082;5.832;2023-06-14T07:04:22;24.27;44.54
66506;HTU21D;53332;51.082;5.832;2023-06-14T07:06:48;24.56;43.69
66506;HTU21D;53332;51.082;5.832;2023-06-14T07:09:14;24.91;42.84
66506;HTU21D;53332;51.082;5.832;2023-06-14T07:11:44;25.27;41.97
66506;HTU21D;53332;51.082;5.832;2023-06-14T07:14:09;25.60;41.22
66506;HTU21D;53332;51.082;5.832;2023-06-14T07:16:35;25.91;40.02
66506;HTU21D;53332;51.082;5.832;2023-06-14T07:19:02;26.23;39.35
66506;HTU21D;53332;51.082;5.832;2023-06-14T07:21:28;26.56;38.13
66506;HTU21D;53332;51.082;5.832;2023-06-14T07:23:54;26.79;37.13
66506;HTU21D;53332;51.082;5.832;2023-06-14T07:26:20;27.08;37.11
66506;HTU21D;53332;51.082;5.832;2023-06-14T07:28:49;27.41;36.95
66506;HTU21D;53332;51.082;5.832;2023-06-14T07:31:15;27.66;36.25
66506;HTU21D;53332;51.082;5.832;2023-06-14T07:33:41;27.84;36.11
66506;HTU21D;53332;51.082;5.832;2023-06-14T07:36:07;28.08;35.48
66506;HTU21D;53332;51.082;5.832;2023-06-14T07:38:33;28.27;34.05
66506;HTU21D;53332;51.082;5.832;2023-06-14T07:40:59;28.39;34.45
66506;HTU21D;53332;51.082;5.832;2023-06-14T07:43:25;28.37;33.34
66506;HTU21D;53332;51.082;5.832;2023-06-14T07:45:50;28.41;33.35
66506;HTU21D;53332;51.082;5.832;2023-06-14T07:48:16;28.42;32.73
66506;HTU21D;53332;51.082;5.832;2023-06-14T07:50:41;28.37;32.32
66506;HTU21D;53332;51.082;5.832;2023-06-14T07:53:07;28.28;32.25
66506;HTU21D;53332;51.082;5.832;2023-06-14T07:55:32;28.33;32.38
66506;HTU21D;53332;51.082;5.832;2023-06-14T07:58:02;28.35;32.17
66506;HTU21D;53332;51.082;5.832;2023-06-14T08:00:28;28.04;32.41
66506;HTU21D;53332;51.082;5.832;2023-06-14T08:02:53;27.64;33.18
66506;HTU21D;53332;51.082;5.832;2023-06-14T08:05:24;27.46;33.93
66506;HTU21D;53332;51.082;5.832;2023-06-14T08:07:51;27.55;34.37
66506;HTU21D;53332;51.082;5.832;2023-06-14T08:10:17;27.42;34.13
66506;HTU21D;53332;51.082;5.832;2023-06-14T08:12:42;27.40;34.09
66506;HTU21D;53332;51.082;5.832;2023-06-14T08:15:08;27.52;34.74
66506;HTU21D;53332;51.082;5.832;2023-06-14T08:17:34;27.37;34.29
66506;HTU21D;53332;51.082;5.832;2023-06-14T08:20:00;27.12;34.10
66506;HTU21D;53332;51.082;5.832;2023-06-14T08:22:25;26.86;34.86
66506;HTU21D;53332;51.082;5.832;2023-06-14T08:24:53;26.87;35.76
66506;HTU21D;53332;51.082;5.832;2023-06-14T08:27:20;27.10;35.79
66506;HTU21D;53332;51.082;5.832;2023-06-14T08:29:45;27.32;35.65
66506;HTU21D;53332;51.082;5.832;2023-06-14T08:32:12;27.53;34.71
66506;HTU21D;53332;51.082;5.832;2023-06-14T08:34:37;27.74;34.61
66506;HTU21D;53332;51.082;5.832;2023-06-14T08:37:03;27.94;34.03
66506;HTU21D;53332;51.082;5.832;2023-06-14T08:39:29;27.80;33.28
66506;HTU21D;53332;51.082;5.832;2023-06-14T08:41:54;27.65;33.51
66506;HTU21D;53332;51.082;5.832;2023-06-14T08:44:22;27.69;33.23
66506;HTU21D;53332;51.082;5.832;2023-06-14T08:46:48;27.60;33.89
66506;HTU21D;53332;51.082;5.832;2023-06-14T08:49:17;27.60;33.68
66506;HTU21D;53332;51.082;5.832;2023-06-14T08:51:43;27.67;33.51
66506;HTU21D;53332;51.082;5.832;2023-06-14T08:54:11;27.74;33.11
66506;HTU21D;53332;51.082;5.832;2023-06-14T08:56:40;27.76;32.58
66506;HTU21D;53332;51.082;5.832;2023-06-14T08:59:08;27.74;32.07
66506;HTU21D;53332;51.082;5.832;2023-06-14T09:01:35;27.65;32.32
66506;HTU21D;53332;51.082;5.832;2023-06-14T09:04:01;27.64;32.84
66506;HTU21D;53332;51.082;5.832;2023-06-14T09:06:28;27.59;32.01
66506;HTU21D;53332;51.082;5.832;2023-06-14T09:08:55;27.27;32.26
66506;HTU21D;53332;51.082;5.832;2023-06-14T09:11:24;26.93;32.74
66506;HTU21D;53332;51.082;5.832;2023-06-14T09:13:51;26.87;33.38
66506;HTU21D;53332;51.082;5.832;2023-06-14T09:16:17;26.90;33.55
66506;HTU21D;53332;51.082;5.832;2023-06-14T09:18:44;26.79;33.76
66506;HTU21D;53332;51.082;5.832;2023-06-14T09:21:11;26.86;33.24
66506;HTU21D;53332;51.082;5.832;2023-06-14T09:23:39;26.93;33.90
66506;HTU21D;53332;51.082;5.832;2023-06-14T09:26:16;27.02;33.51
66506;HTU21D;53332;51.082;5.832;2023-06-14T09:28:43;27.14;32.73
66506;HTU21D;53332;51.082;5.832;2023-06-14T09:31:17;27.19;32.49
66506;HTU21D;53332;51.082;5.832;2023-06-14T09:33:44;27.29;33.06
66506;HTU21D;53332;51.082;5.832;2023-06-14T09:36:18;27.46;32.53
66506;HTU21D;53332;51.082;5.832;2023-06-14T09:38:58;27.58;32.10
66506;HTU21D;53332;51.082;5.832;2023-06-14T09:41:32;27.70;31.79
66506;HTU21D;53332;51.082;5.832;2023-06-14T09:44:00;27.80;30.63
66506;HTU21D;53332;51.082;5.832;2023-06-14T09:46:28;27.75;30.07
66506;HTU21D;53332;51.082;5.832;2023-06-14T09:49:01;27.81;29.54
66506;HTU21D;53332;51.082;5.832;2023-06-14T09:51:28;27.88;29.10
66506;HTU21D;53332;51.082;5.832;2023-06-14T09:54:03;27.88;28.95
66506;HTU21D;53332;51.082;5.832;2023-06-14T09:56:42;27.93;28.71
66506;HTU21D;53332;51.082;5.832;2023-06-14T09:59:10;27.95;28.97
66506;HTU21D;53332;51.082;5.832;2023-06-14T10:01:42;28.04;28.14
66506;HTU21D;53332;51.082;5.832;2023-06-14T10:04:09;28.00;27.66
66506;HTU21D;53332;51.082;5.832;2023-06-14T10:06:37;28.02;28.43
66506;HTU21D;53332;51.082;5.832;2023-06-14T10:09:08;28.08;28.07
66506;HTU21D;53332;51.082;5.832;2023-06-14T10:11:35;28.17;27.23
66506;HTU21D;53332;51.082;5.832;2023-06-14T10:14:03;28.20;27.10
66506;HTU21D;53332;51.082;5.832;2023-06-14T10:16:45;28.01;26.56
66506;HTU21D;53332;51.082;5.832;2023-06-14T10:19:22;27.64;26.92
66506;HTU21D;53332;51.082;5.832;2023-06-14T10:22:35;27.54;27.40
66506;HTU21D;53332;51.082;5.832;2023-06-14T10:25:07;27.43;27.10
66506;HTU21D;53332;51.082;5.832;2023-06-14T10:27:37;27.44;27.58
66506;HTU21D;53332;51.082;5.832;2023-06-14T10:30:05;27.44;27.12
66506;HTU21D;53332;51.082;5.832;2023-06-14T10:32:31;27.47;28.21
66506;HTU21D;53332;51.082;5.832;2023-06-14T10:35:00;27.53;27.97
66506;HTU21D;53332;51.082;5.832;2023-06-14T10:37:26;27.53;28.16
66506;HTU21D;53332;51.082;5.832;2023-06-14T10:39:52;27.58;28.55
66506;HTU21D;53332;51.082;5.832;2023-06-14T10:42:19;27.66;28.16
66506;HTU21D;53332;51.082;5.832;2023-06-14T10:44:58;27.68;26.72
66506;HTU21D;53332;51.082;5.832;2023-06-14T10:47:30;27.67;26.80
66506;HTU21D;53332;51.082;5.832;2023-06-14T10:50:08;27.45;26.57
66506;HTU21D;53332;51.082;5.832;2023-06-14T10:52:38;27.43;27.13
66506;HTU21D;53332;51.082;5.832;2023-06-14T10:57:33;27.16;28.47
66506;HTU21D;53332;51.082;5.832;2023-06-14T10:59:59;27.37;28.93
66506;HTU21D;53332;51.082;5.832;2023-06-14T11:05:25;27.64;29.14
66506;HTU21D;53332;51.082;5.832;2023-06-14T11:10:43;27.45;29.17
66506;HTU21D;53332;51.082;5.832;2023-06-14T11:13:11;27.42;29.19
66506;HTU21D;53332;51.082;5.832;2023-06-14T11:15:38;27.44;29.10
66506;HTU21D;53332;51.082;5.832;2023-06-14T11:18:08;27.41;28.23
66506;HTU21D;53332;51.082;5.832;2023-06-14T11:20:37;27.39;28.39
66506;HTU21D;53332;51.082;5.832;2023-06-14T11:23:03;27.34;28.70
66506;HTU21D;53332;51.082;5.832;2023-06-14T11:25:30;27.22;28.91
66506;HTU21D;53332;51.082;5.832;2023-06-14T11:27:56;27.26;29.52
66506;HTU21D;53332;51.082;5.832;2023-06-14T11:30:22;27.44;29.41
66506;HTU21D;53332;51.082;5.832;2023-06-14T11:32:49;27.52;28.86
66506;HTU21D;53332;51.082;5.832;2023-06-14T11:35:17;27.52;29.61
66506;HTU21D;53332;51.082;5.832;2023-06-14T11:37:43;27.55;29.78
66506;HTU21D;53332;51.082;5.832;2023-06-14T11:40:11;27.50;29.57
66506;HTU21D;53332;51.082;5.832;2023-06-14T11:42:39;27.51;29.92
66506;HTU21D;53332;51.082;5.832;2023-06-14T11:45:09;27.36;30.38
66506;HTU21D;53332;51.082;5.832;2023-06-14T11:47:36;27.41;31.16
66506;HTU21D;53332;51.082;5.832;2023-06-14T11:50:04;27.38;31.10
66506;HTU21D;53332;51.082;5.832;2023-06-14T11:52:31;27.50;30.58
66506;HTU21D;53332;51.082;5.832;2023-06-14T11:54:57;27.74;29.87
66506;HTU21D;53332;51.082;5.832;2023-06-14T11:57:24;27.87;29.42
66506;HTU21D;53332;51.082;5.832;2023-06-14T11:59:51;28.04;29.42
66506;HTU21D;53332;51.082;5.832;2023-06-14T12:02:18;28.18;29.27
66506;HTU21D;53332;51.082;5.832;2023-06-14T12:04:46;28.28;28.91
66506;HTU21D;53332;51.082;5.832;2023-06-14T12:07:17;28.19;29.21
66506;HTU21D;53332;51.082;5.832;2023-06-14T12:12:22;27.82;30.82
66506;HTU21D;53332;51.082;5.832;2023-06-14T12:14:49;27.86;30.96
66506;HTU21D;53332;51.082;5.832;2023-06-14T12:17:17;27.94;30.75
66506;HTU21D;53332;51.082;5.832;2023-06-14T12:19:43;27.87;30.45
66506;HTU21D;53332;51.082;5.832;2023-06-14T12:22:10;27.90;30.29
66506;HTU21D;53332;51.082;5.832;2023-06-14T12:24:37;28.05;30.13
66506;HTU21D;53332;51.082;5.832;2023-06-14T12:27:06;28.10;29.93
66506;HTU21D;53332;51.082;5.832;2023-06-14T12:29:32;28.13;30.55
66506;HTU21D;53332;51.082;5.832;2023-06-14T12:31:57;28.16;31.02
66506;HTU21D;53332;51.082;5.832;2023-06-14T12:34:27;28.20;30.28
66506;HTU21D;53332;51.082;5.832;2023-06-14T12:36:53;28.24;30.22
66506;HTU21D;53332;51.082;5.832;2023-06-14T12:39:19;28.16;30.13
66506;HTU21D;53332;51.082;5.832;2023-06-14T12:41:46;28.13;30.12
66506;HTU21D;53332;51.082;5.832;2023-06-14T12:44:13;28.17;29.74
66506;HTU21D;53332;51.082;5.832;2023-06-14T12:46:39;28.15;28.61
66506;HTU21D;53332;51.082;5.832;2023-06-14T12:49:07;27.89;28.81
66506;HTU21D;53332;51.082;5.832;2023-06-14T12:51:32;27.75;29.10
66506;HTU21D;53332;51.082;5.832;2023-06-14T12:53:58;27.73;28.58
66506;HTU21D;53332;51.082;5.832;2023-06-14T12:56:23;27.61;28.77
66506;HTU21D;53332;51.082;5.832;2023-06-14T12:58:49;27.57;29.61
66506;HTU21D;53332;51.082;5.832;2023-06-14T13:01:15;27.67;28.96
66506;HTU21D;53332;51.082;5.832;2023-06-14T13:03:40;27.63;28.85
66506;HTU21D;53332;51.082;5.832;2023-06-14T13:06:06;27.61;28.62
66506;HTU21D;53332;51.082;5.832;2023-06-14T13:08:31;27.63;28.63
66506;HTU21D;53332;51.082;5.832;2023-06-14T13:10:57;27.61;28.74
66506;HTU21D;53332;51.082;5.832;2023-06-14T13:13:23;27.67;29.46
66506;HTU21D;53332;51.082;5.832;2023-06-14T13:15:49;27.72;29.40
66506;HTU21D;53332;51.082;5.832;2023-06-14T13:18:15;27.95;28.97
66506;HTU21D;53332;51.082;5.832;2023-06-14T13:20:41;28.03;28.77
66506;HTU21D;53332;51.082;5.832;2023-06-14T13:23:08;28.09;28.97
66506;HTU21D;53332;51.082;5.832;2023-06-14T13:25:35;27.94;29.15
66506;HTU21D;53332;51.082;5.832;2023-06-14T13:28:00;27.85;29.34
66506;HTU21D;53332;51.082;5.832;2023-06-14T13:30:26;27.83;29.67
66506;HTU21D;53332;51.082;5.832;2023-06-14T13:32:51;27.91;29.69
66506;HTU21D;53332;51.082;5.832;2023-06-14T13:35:18;28.03;30.04
66506;HTU21D;53332;51.082;5.832;2023-06-14T13:37:44;28.11;29.14
66506;HTU21D;53332;51.082;5.832;2023-06-14T13:40:11;27.98;29.22
66506;HTU21D;53332;51.082;5.832;2023-06-14T13:42:37;27.86;29.53
66506;HTU21D;53332;51.082;5.832;2023-06-14T13:45:03;27.78;29.29
66506;HTU21D;53332;51.082;5.832;2023-06-14T13:47:29;27.80;29.90
66506;HTU21D;53332;51.082;5.832;2023-06-14T13:49:55;27.86;29.93
66506;HTU21D;53332;51.082;5.832;2023-06-14T13:52:21;27.95;28.84
66506;HTU21D;53332;51.082;5.832;2023-06-14T13:54:46;27.91;28.27
66506;HTU21D;53332;51.082;5.832;2023-06-14T13:57:12;27.86;27.45
66506;HTU21D;53332;51.082;5.832;2023-06-14T13:59:39;27.91;28.00
66506;HTU21D;53332;51.082;5.832;2023-06-14T14:02:06;27.99;27.53
66506;HTU21D;53332;51.082;5.832;2023-06-14T14:04:31;28.00;27.52
66506;HTU21D;53332;51.082;5.832;2023-06-14T14:06:57;28.06;27.33
66506;HTU21D;53332;51.082;5.832;2023-06-14T14:09:22;28.10;27.95
66506;HTU21D;53332;51.082;5.832;2023-06-14T14:11:48;28.11;28.05
66506;HTU21D;53332;51.082;5.832;2023-06-14T14:14:14;28.12;28.58
66506;HTU21D;53332;51.082;5.832;2023-06-14T14:16:40;28.05;29.40
66506;HTU21D;53332;51.082;5.832;2023-06-14T14:19:06;28.00;29.40
66506;HTU21D;53332;51.082;5.832;2023-06-14T14:21:32;28.00;28.60
66506;HTU21D;53332;51.082;5.832;2023-06-14T14:23:58;28.10;27.98
66506;HTU21D;53332;51.082;5.832;2023-06-14T14:26:24;28.05;28.51
66506;HTU21D;53332;51.082;5.832;2023-06-14T14:28:51;28.11;29.03
66506;HTU21D;53332;51.082;5.832;2023-06-14T14:31:17;28.04;29.19
66506;HTU21D;53332;51.082;5.832;2023-06-14T14:33:42;27.99;29.55
66506;HTU21D;53332;51.082;5.832;2023-06-14T14:36:08;27.94;29.33
66506;HTU21D;53332;51.082;5.832;2023-06-14T14:38:33;27.94;29.29
66506;HTU21D;53332;51.082;5.832;2023-06-14T14:40:59;27.93;29.53
66506;HTU21D;53332;51.082;5.832;2023-06-14T14:43:25;27.90;29.59
66506;HTU21D;53332;51.082;5.832;2023-06-14T14:45:50;27.91;30.53
66506;HTU21D;53332;51.082;5.832;2023-06-14T14:48:16;27.88;30.39
66506;HTU21D;53332;51.082;5.832;2023-06-14T14:50:41;27.86;30.34
66506;HTU21D;53332;51.082;5.832;2023-06-14T14:53:07;27.87;29.78
66506;HTU21D;53332;51.082;5.832;2023-06-14T14:55:32;27.89;30.33
66506;HTU21D;53332;51.082;5.832;2023-06-14T14:58:01;27.98;30.99
66506;HTU21D;53332;51.082;5.832;2023-06-14T15:00:28;27.96;30.29
66506;HTU21D;53332;51.082;5.832;2023-06-14T15:02:54;27.96;30.87
66506;HTU21D;53332;51.082;5.832;2023-06-14T15:05:19;28.01;30.70
66506;HTU21D;53332;51.082;5.832;2023-06-14T15:07:45;28.01;30.63
66506;HTU21D;53332;51.082;5.832;2023-06-14T15:10:11;28.10;31.17
66506;HTU21D;53332;51.082;5.832;2023-06-14T15:12:37;28.15;31.39
66506;HTU21D;53332;51.082;5.832;2023-06-14T15:15:03;28.05;31.04
66506;HTU21D;53332;51.082;5.832;2023-06-14T15:17:29;27.97;31.61
66506;HTU21D;53332;51.082;5.832;2023-06-14T15:19:55;27.96;31.24
66506;HTU21D;53332;51.082;5.832;2023-06-14T15:22:20;27.88;31.10
66506;HTU21D;53332;51.082;5.832;2023-06-14T15:24:46;27.81;31.54